createdAt,value
2023-02-03T00:00:42.452Z,61.28
2023-02-03T00:01:35.311Z,61.76
2023-02-03T00:02:08.401Z,63.80
2023-02-03T00:02:41.362Z,64.66
2023-02-03T00:03:14.457Z,65.30
2023-02-03T00:03:47.490Z,65.42
2023-02-03T00:05:36.958Z,63.95
2023-02-03T00:06:47.818Z,61.94
2023-02-03T00:07:58.595Z,60.71
2023-02-03T00:09:09.433Z,58.47
2023-02-03T00:12:16.935Z,58.40
2023-02-03T00:13:28.919Z,60.27
2023-02-03T00:14:01.996Z,60.73
2023-02-03T00:15:11.930Z,62.59
2023-02-03T00:15:45.427Z,63.32
2023-02-03T00:16:18.413Z,64.36
2023-02-03T00:16:51.490Z,64.60
2023-02-03T00:17:24.661Z,64.38
2023-02-03T00:18:35.467Z,63.00
2023-02-03T00:19:08.474Z,61.68
2023-02-03T00:20:57.431Z,60.04
2023-02-03T00:21:30.395Z,58.87
2023-02-03T00:23:58.864Z,57.45
2023-02-03T00:26:28.805Z,60.25
2023-02-03T00:27:01.872Z,61.41
2023-02-03T00:27:34.642Z,62.86
2023-02-03T00:28:07.671Z,63.94
2023-02-03T00:29:18.895Z,65.25
2023-02-03T00:29:51.959Z,64.91
2023-02-03T00:30:25.200Z,64.20
2023-02-03T00:30:58.315Z,63.83
2023-02-03T00:32:09.511Z,62.24
2023-02-03T00:33:58.030Z,59.84
2023-02-03T00:35:09.297Z,57.83
2023-02-03T00:37:08.717Z,57.69
2023-02-03T00:38:19.559Z,59.06
2023-02-03T00:38:53.063Z,60.09
2023-02-03T00:39:25.936Z,60.56
2023-02-03T00:39:58.878Z,61.57
2023-02-03T00:41:09.853Z,63.55
2023-02-03T00:42:20.731Z,64.84
2023-02-03T00:42:55.117Z,64.94
2023-02-03T00:43:28.511Z,64.68
2023-02-03T00:44:39.179Z,62.76
2023-02-03T00:45:49.970Z,60.82
2023-02-03T00:46:23.000Z,59.69
2023-02-03T00:46:55.972Z,59.06
2023-02-03T00:47:29.039Z,58.20
2023-02-03T00:49:17.788Z,57.49
2023-02-03T00:50:28.881Z,59.00
2023-02-03T00:51:39.627Z,60.15
2023-02-03T00:53:28.473Z,63.87
2023-02-03T00:54:39.083Z,65.14
2023-02-03T00:55:49.784Z,64.50
2023-02-03T00:56:22.753Z,63.54
2023-02-03T00:56:55.636Z,62.82
2023-02-03T00:57:28.901Z,61.50
2023-02-03T00:59:18.571Z,57.76
2023-02-03T01:00:29.539Z,56.07
2023-02-03T01:01:40.302Z,55.59
2023-02-03T01:02:47.075Z,58.24
2023-02-03T01:04:35.671Z,60.33
2023-02-03T01:05:08.780Z,61.23
2023-02-03T01:06:20.511Z,62.62
2023-02-03T01:06:57.664Z,63.68
2023-02-03T01:07:33.046Z,64.23
2023-02-03T01:08:06.008Z,64.24
2023-02-03T01:08:39.009Z,63.86
2023-02-03T01:09:11.853Z,63.26
2023-02-03T01:09:44.743Z,62.51
2023-02-03T01:10:18.137Z,60.89
2023-02-03T01:11:29.199Z,58.87
2023-02-03T01:13:18.256Z,56.56
2023-02-03T01:13:51.946Z,57.46
2023-02-03T01:14:24.784Z,57.88
2023-02-03T01:15:35.880Z,59.93
2023-02-03T01:16:50.680Z,60.78
2023-02-03T01:18:39.832Z,64.29
2023-02-03T01:21:08.483Z,64.21
2023-02-03T01:21:41.453Z,62.46
2023-02-03T01:22:14.480Z,61.83
2023-02-03T01:22:48.574Z,60.86
2023-02-03T01:23:21.512Z,60.41
2023-02-03T01:23:54.634Z,59.75
2023-02-03T01:24:29.898Z,59.13
2023-02-03T01:25:40.452Z,57.25
2023-02-03T01:26:15.629Z,57.14
2023-02-03T01:26:48.654Z,57.14
2023-02-03T01:28:37.812Z,59.07
2023-02-03T01:29:10.783Z,59.74
2023-02-03T01:31:12.209Z,62.03
2023-02-03T01:31:45.380Z,61.99
2023-02-03T01:32:18.590Z,63.08
2023-02-03T01:32:51.868Z,64.06
2023-02-03T01:33:25.175Z,64.07
2023-02-03T01:33:58.955Z,63.28
2023-02-03T01:37:37.667Z,58.35
2023-02-03T01:38:45.352Z,56.50
2023-02-03T01:39:18.651Z,55.99
2023-02-03T01:40:24.790Z,56.92
2023-02-03T01:40:58.173Z,57.84
2023-02-03T01:42:15.270Z,59.56
2023-02-03T01:43:30.953Z,60.52
2023-02-03T01:44:32.797Z,61.82
2023-02-03T01:45:06.601Z,61.79
2023-02-03T01:45:39.585Z,62.94
2023-02-03T01:47:45.157Z,64.80
2023-02-03T01:48:18.188Z,65.47
2023-02-03T01:50:14.605Z,61.63
2023-02-03T01:53:20.568Z,56.15
2023-02-03T01:54:37.770Z,56.79
2023-02-03T01:57:16.640Z,59.79
2023-02-03T01:57:54.563Z,60.66
2023-02-03T01:59:08.013Z,61.76
2023-02-03T01:59:40.962Z,62.66
2023-02-03T02:00:15.086Z,63.66
2023-02-03T02:00:48.817Z,64.49
2023-02-03T02:01:22.044Z,64.79
2023-02-03T02:01:55.132Z,64.68
2023-02-03T02:03:06.302Z,63.03
2023-02-03T02:04:43.789Z,61.40
2023-02-03T02:05:40.312Z,59.52
2023-02-03T02:06:52.197Z,56.59
2023-02-03T02:07:25.786Z,56.99
2023-02-03T02:08:37.360Z,57.39
2023-02-03T02:09:10.336Z,57.83
2023-02-03T02:09:44.326Z,58.18
2023-02-03T02:10:17.415Z,59.20
2023-02-03T02:11:28.528Z,60.00
2023-02-03T02:12:39.372Z,61.36
2023-02-03T02:13:51.422Z,62.46
2023-02-03T02:14:24.404Z,63.66
2023-02-03T02:14:57.369Z,64.58
2023-02-03T02:15:59.261Z,64.87
2023-02-03T02:16:47.756Z,66.37
2023-02-03T02:17:37.440Z,65.01
2023-02-03T02:18:20.428Z,63.80
2023-02-03T02:18:57.498Z,62.16
2023-02-03T02:22:04.277Z,56.91
2023-02-03T02:23:05.203Z,54.39
2023-02-03T02:23:57.635Z,56.01
2023-02-03T02:25:12.077Z,56.15
2023-02-03T02:27:08.203Z,57.43
2023-02-03T02:28:03.346Z,58.90
2023-02-03T02:28:46.195Z,59.20
2023-02-03T02:29:44.258Z,60.61
2023-02-03T02:30:20.302Z,60.51
2023-02-03T02:31:15.619Z,62.22
2023-02-03T02:33:20.117Z,66.76
2023-02-03T02:34:03.653Z,67.90
2023-02-03T02:35:49.291Z,66.55
2023-02-03T02:37:29.257Z,61.62
2023-02-03T02:38:25.520Z,60.98
2023-02-03T02:39:00.114Z,58.94
2023-02-03T02:39:44.836Z,56.07
2023-02-03T02:41:12.362Z,54.80
2023-02-03T02:41:49.137Z,55.04
2023-02-03T02:42:34.824Z,55.80
2023-02-03T02:44:00.025Z,56.93
2023-02-03T02:44:35.108Z,57.64
2023-02-03T02:45:15.394Z,58.72
2023-02-03T02:45:53.017Z,59.37
2023-02-03T02:47:27.692Z,59.66
2023-02-03T02:48:08.239Z,61.22
2023-02-03T02:48:57.178Z,61.71
2023-02-03T02:51:40.924Z,64.19
2023-02-03T02:52:14.613Z,63.66
2023-02-03T02:52:47.505Z,62.73
2023-02-03T02:54:07.308Z,60.77
2023-02-03T02:56:56.641Z,55.20
2023-02-03T02:57:31.525Z,55.72
2023-02-03T02:58:07.279Z,56.11
2023-02-03T02:58:41.389Z,56.78
2023-02-03T02:59:14.351Z,57.36
2023-02-03T02:59:47.733Z,57.99
2023-02-03T03:00:20.911Z,58.70
2023-02-03T03:02:11.197Z,60.32
2023-02-03T03:05:19.719Z,64.54
2023-02-03T03:05:55.662Z,65.25
2023-02-03T03:07:45.827Z,66.75
2023-02-03T03:08:20.560Z,63.88
2023-02-03T03:08:57.829Z,62.17
2023-02-03T03:11:02.246Z,57.79
2023-02-03T03:12:22.329Z,56.05
2023-02-03T03:12:57.664Z,56.47
2023-02-03T03:14:10.968Z,56.74
2023-02-03T03:14:46.298Z,57.82
2023-02-03T03:15:25.398Z,58.22
2023-02-03T03:15:58.668Z,59.25
2023-02-03T03:20:37.733Z,63.45
2023-02-03T03:22:37.440Z,66.61
2023-02-03T03:23:14.716Z,65.47
2023-02-03T03:25:13.423Z,63.07
2023-02-03T03:25:48.955Z,61.56
2023-02-03T03:26:24.884Z,60.45
2023-02-03T03:27:54.569Z,57.63
2023-02-03T03:28:42.703Z,56.52
2023-02-03T03:29:18.651Z,56.06
2023-02-03T03:32:17.743Z,58.90
2023-02-03T03:33:28.732Z,60.92
2023-02-03T03:34:39.489Z,60.96
2023-02-03T03:35:12.746Z,61.73
2023-02-03T03:35:55.966Z,62.41
2023-02-03T03:36:34.665Z,63.02
2023-02-03T03:38:07.649Z,66.62
2023-02-03T03:39:24.766Z,65.00
2023-02-03T03:41:25.025Z,61.35
2023-02-03T03:41:59.390Z,60.48
2023-02-03T03:42:33.578Z,58.60
2023-02-03T03:44:04.372Z,55.37
2023-02-03T03:45:43.488Z,54.24
2023-02-03T03:46:27.320Z,55.44
2023-02-03T03:47:07.295Z,56.60
2023-02-03T03:47:42.549Z,57.02
2023-02-03T03:51:08.550Z,61.36
2023-02-03T03:51:45.224Z,61.21
2023-02-03T03:52:24.443Z,61.70
2023-02-03T03:52:57.762Z,62.33
2023-02-03T03:53:31.298Z,63.68
2023-02-03T03:54:06.973Z,64.71
2023-02-03T03:55:18.515Z,65.43
2023-02-03T03:58:46.655Z,61.83
2023-02-03T03:59:58.885Z,57.36
2023-02-03T04:02:27.377Z,54.67
2023-02-03T04:03:44.321Z,56.15
2023-02-03T04:04:17.357Z,56.80
2023-02-03T04:05:28.407Z,57.79
2023-02-03T04:06:39.266Z,59.29
2023-02-03T04:07:15.414Z,60.44
2023-02-03T04:08:26.278Z,60.68
2023-02-03T04:09:37.649Z,61.75
2023-02-03T04:10:31.991Z,62.65
2023-02-03T04:11:05.414Z,64.61
2023-02-03T04:11:56.914Z,65.31
2023-02-03T04:13:08.593Z,65.11
2023-02-03T04:13:41.568Z,63.60
2023-02-03T04:14:14.547Z,62.33
2023-02-03T04:14:47.515Z,61.12
2023-02-03T04:15:58.529Z,59.55
2023-02-03T04:16:31.575Z,57.24
2023-02-03T04:17:04.728Z,55.75
2023-02-03T04:18:15.737Z,55.36
2023-02-03T04:19:26.672Z,56.06
2023-02-03T04:20:37.489Z,57.42
2023-02-03T04:21:10.599Z,58.22
2023-02-03T04:24:17.099Z,61.35
2023-02-03T04:25:28.036Z,62.46
2023-02-03T04:26:01.409Z,63.84
2023-02-03T04:26:34.453Z,64.64
2023-02-03T04:27:07.563Z,65.20
2023-02-03T04:28:18.408Z,64.58
2023-02-03T04:29:29.207Z,62.84
2023-02-03T04:31:17.974Z,59.30
2023-02-03T04:32:29.328Z,56.78
2023-02-03T04:33:40.586Z,56.30
2023-02-03T04:34:51.754Z,56.95
2023-02-03T04:35:25.020Z,57.53
2023-02-03T04:35:58.097Z,58.06
2023-02-03T04:37:12.427Z,59.41
2023-02-03T04:37:45.823Z,60.12
2023-02-03T04:38:56.990Z,61.13
2023-02-03T04:39:30.064Z,61.71
2023-02-03T04:41:57.332Z,64.80
2023-02-03T04:43:46.477Z,64.33
2023-02-03T04:44:57.339Z,62.34
2023-02-03T04:46:08.538Z,60.24
2023-02-03T04:47:19.562Z,56.12
2023-02-03T04:47:54.492Z,55.56
2023-02-03T04:48:28.000Z,54.78
2023-02-03T04:49:39.040Z,54.96
2023-02-03T04:50:49.798Z,56.38
2023-02-03T04:52:00.712Z,57.51
2023-02-03T04:53:49.624Z,59.58
2023-02-03T04:54:22.603Z,60.37
2023-02-03T04:54:55.666Z,60.91
2023-02-03T04:55:28.856Z,61.40
2023-02-03T04:56:01.917Z,61.82
2023-02-03T04:56:34.888Z,62.19
2023-02-03T04:57:07.867Z,62.71
2023-02-03T04:58:18.732Z,65.00
2023-02-03T04:59:29.586Z,65.25
2023-02-03T05:01:18.468Z,62.36
2023-02-03T05:01:51.394Z,60.80
2023-02-03T05:02:24.694Z,59.52
2023-02-03T05:02:57.787Z,58.42
2023-02-03T05:03:30.909Z,56.73
2023-02-03T05:04:43.239Z,55.56
2023-02-03T05:05:16.250Z,55.72
2023-02-03T05:08:26.684Z,58.00
2023-02-03T05:09:37.491Z,58.92
2023-02-03T05:10:48.608Z,60.11
2023-02-03T05:11:22.317Z,60.70
2023-02-03T05:11:55.219Z,61.29
2023-02-03T05:13:06.161Z,61.97
2023-02-03T05:14:16.887Z,62.72
2023-02-03T05:15:27.757Z,64.80
2023-02-03T05:16:00.823Z,64.71
2023-02-03T05:17:52.284Z,62.38
2023-02-03T05:18:25.205Z,60.99
2023-02-03T05:18:58.184Z,59.69
2023-02-03T05:20:09.940Z,56.68
2023-02-03T05:21:20.704Z,55.23
2023-02-03T05:22:26.473Z,55.80
2023-02-03T05:22:59.556Z,56.17
2023-02-03T05:24:10.810Z,56.89
2023-02-03T05:25:21.728Z,58.35
2023-02-03T05:25:54.857Z,59.14
2023-02-03T05:26:27.673Z,59.64
2023-02-03T05:27:38.841Z,60.17
2023-02-03T05:28:11.937Z,60.93
2023-02-03T05:28:45.445Z,61.66
2023-02-03T05:29:56.249Z,62.24
2023-02-03T05:31:07.268Z,63.75
2023-02-03T05:32:18.281Z,65.48
2023-02-03T05:33:29.516Z,64.64
2023-02-03T05:34:02.473Z,63.10
2023-02-03T05:34:35.548Z,62.04
2023-02-03T05:35:08.728Z,61.15
2023-02-03T05:35:41.706Z,59.94
2023-02-03T05:36:14.690Z,58.78
2023-02-03T05:37:25.582Z,55.69
2023-02-03T05:38:37.424Z,55.56
2023-02-03T05:39:48.229Z,56.41
2023-02-03T05:40:40.197Z,57.31
2023-02-03T05:42:48.919Z,58.94
2023-02-03T05:43:21.888Z,60.09
2023-02-03T05:43:54.757Z,61.08
2023-02-03T05:45:47.149Z,62.09
2023-02-03T05:47:37.273Z,65.79
2023-02-03T05:49:26.336Z,64.77
2023-02-03T05:50:38.714Z,62.45
2023-02-03T05:51:50.819Z,60.42
2023-02-03T05:53:04.853Z,56.40
2023-02-03T05:53:37.933Z,55.84
2023-02-03T05:54:11.004Z,55.77
2023-02-03T05:55:21.765Z,55.99
2023-02-03T05:55:54.875Z,56.51
2023-02-03T05:57:06.007Z,57.20
2023-02-03T05:57:39.286Z,58.00
2023-02-03T05:59:26.870Z,59.41
2023-02-03T05:59:59.880Z,60.01
2023-02-03T06:01:05.630Z,61.15
2023-02-03T06:01:38.696Z,61.68
2023-02-03T06:02:11.671Z,62.05
2023-02-03T06:02:44.645Z,62.50
2023-02-03T06:03:17.630Z,63.43
2023-02-03T06:05:08.522Z,64.75
2023-02-03T06:05:41.694Z,63.57
2023-02-03T06:06:15.078Z,62.56
2023-02-03T06:06:48.463Z,61.43
2023-02-03T06:08:37.313Z,57.23
2023-02-03T06:09:48.170Z,55.62
2023-02-03T06:12:20.645Z,56.55
2023-02-03T06:14:05.102Z,58.29
2023-02-03T06:14:38.088Z,58.75
2023-02-03T06:15:49.144Z,59.34
2023-02-03T06:16:25.132Z,60.04
2023-02-03T06:17:36.449Z,60.85
2023-02-03T06:18:09.522Z,61.51
2023-02-03T06:19:20.793Z,62.37
2023-02-03T06:20:31.655Z,64.43
2023-02-03T06:21:05.095Z,64.69
2023-02-03T06:21:37.982Z,64.28
2023-02-03T06:22:48.875Z,63.04
2023-02-03T06:24:37.827Z,59.65
2023-02-03T06:25:49.198Z,55.62
2023-02-03T06:28:16.527Z,55.81
2023-02-03T06:28:49.631Z,56.45
2023-02-03T06:30:38.520Z,58.11
2023-02-03T06:31:12.031Z,58.80
2023-02-03T06:31:45.164Z,59.48
2023-02-03T06:32:18.220Z,60.06
2023-02-03T06:33:29.079Z,61.08
2023-02-03T06:36:35.856Z,64.26
2023-02-03T06:37:09.042Z,64.98
2023-02-03T06:37:42.252Z,64.87
2023-02-03T06:38:15.185Z,64.37
2023-02-03T06:39:26.045Z,62.98
2023-02-03T06:40:36.823Z,60.55
2023-02-03T06:41:47.576Z,57.53
2023-02-03T06:42:58.442Z,55.78
2023-02-03T06:44:46.973Z,56.13
2023-02-03T06:45:57.890Z,57.30
2023-02-03T06:47:08.803Z,58.06
2023-02-03T06:48:20.379Z,59.04
2023-02-03T06:49:31.129Z,60.34
2023-02-03T06:51:57.464Z,62.21
2023-02-03T06:53:08.228Z,63.98
2023-02-03T06:53:41.201Z,64.81
2023-02-03T06:54:14.478Z,64.94
2023-02-03T06:54:47.547Z,64.42
2023-02-03T06:55:20.534Z,63.49
2023-02-03T06:56:31.384Z,61.97
2023-02-03T06:57:04.418Z,60.56
2023-02-03T06:57:43.407Z,59.42
2023-02-03T06:58:16.354Z,57.89
2023-02-03T06:59:27.100Z,55.43
2023-02-03T07:00:00.132Z,55.65
2023-02-03T07:01:11.162Z,56.10
2023-02-03T07:01:44.472Z,56.46
2023-02-03T07:02:17.485Z,57.05
2023-02-03T07:02:54.808Z,57.81
2023-02-03T07:03:27.947Z,58.04
2023-02-03T07:04:00.876Z,58.62
2023-02-03T07:05:11.780Z,59.49
2023-02-03T07:05:44.655Z,60.16
2023-02-03T07:06:56.535Z,60.70
2023-02-03T07:07:31.918Z,61.20
2023-02-03T07:08:05.040Z,61.37
2023-02-03T07:08:38.026Z,61.92
2023-02-03T07:10:26.933Z,63.64
2023-02-03T07:11:37.933Z,65.03
2023-02-03T07:12:50.898Z,63.91
2023-02-03T07:13:24.021Z,62.60
2023-02-03T07:13:56.957Z,61.30
2023-02-03T07:15:09.768Z,59.15
2023-02-03T07:16:20.604Z,55.93
2023-02-03T07:16:54.571Z,55.58
2023-02-03T07:17:27.510Z,55.54
2023-02-03T07:18:47.652Z,56.14
2023-02-03T07:20:37.077Z,57.84
2023-02-03T07:22:25.621Z,59.50
2023-02-03T07:22:58.693Z,60.11
2023-02-03T07:24:47.238Z,61.21
2023-02-03T07:27:20.015Z,62.69
2023-02-03T07:28:31.901Z,64.56
2023-02-03T07:29:04.873Z,64.57
2023-02-03T07:30:15.738Z,63.68
2023-02-03T07:30:49.346Z,61.70
2023-02-03T07:32:02.896Z,60.48
2023-02-03T07:32:36.034Z,58.71
2023-02-03T07:33:46.780Z,55.18
2023-02-03T07:34:19.648Z,54.79
2023-02-03T07:36:46.596Z,56.07
2023-02-03T07:38:35.455Z,57.88
2023-02-03T07:39:08.648Z,58.57
2023-02-03T07:40:20.723Z,59.33
2023-02-03T07:43:26.267Z,61.41
2023-02-03T07:43:59.137Z,61.78
2023-02-03T07:45:11.164Z,62.40
2023-02-03T07:45:44.172Z,63.27
2023-02-03T07:46:17.320Z,63.91
2023-02-03T07:47:27.971Z,63.52
2023-02-03T07:48:38.897Z,61.54
2023-02-03T07:49:50.491Z,58.96
2023-02-03T07:52:17.125Z,55.31
2023-02-03T07:52:51.312Z,55.37
2023-02-03T07:54:02.275Z,56.01
2023-02-03T07:54:35.350Z,56.27
2023-02-03T07:55:08.690Z,56.99
2023-02-03T07:56:19.492Z,57.71
2023-02-03T07:58:08.350Z,59.13
2023-02-03T07:59:19.100Z,59.64
2023-02-03T08:00:30.127Z,60.78
2023-02-03T08:01:12.975Z,61.21
2023-02-03T08:01:45.952Z,60.72
2023-02-03T08:02:19.021Z,61.72
2023-02-03T08:03:30.189Z,62.43
2023-02-03T08:04:05.528Z,63.29
2023-02-03T08:04:38.615Z,64.07
2023-02-03T08:05:12.165Z,63.96
2023-02-03T08:05:45.252Z,63.35
2023-02-03T08:06:54.892Z,61.42
2023-02-03T08:07:27.962Z,60.07
2023-02-03T08:08:38.840Z,56.75
2023-02-03T08:09:49.682Z,55.18
2023-02-03T08:11:00.414Z,54.73
2023-02-03T08:12:11.411Z,55.40
2023-02-03T08:12:45.360Z,55.94
2023-02-03T08:13:18.687Z,56.74
2023-02-03T08:14:31.392Z,57.41
2023-02-03T08:15:05.774Z,57.89
2023-02-03T08:15:38.767Z,58.79
2023-02-03T08:16:49.481Z,58.79
2023-02-03T08:18:00.512Z,60.58
2023-02-03T08:20:28.268Z,60.89
2023-02-03T08:21:41.467Z,61.75
2023-02-03T08:22:16.848Z,62.54
2023-02-03T08:22:49.895Z,62.78
2023-02-03T08:23:22.950Z,63.28
2023-02-03T08:23:55.918Z,63.85
2023-02-03T08:25:07.631Z,63.17
2023-02-03T08:26:18.394Z,60.94
2023-02-03T08:27:31.797Z,57.35
2023-02-03T08:28:06.636Z,55.42
2023-02-03T08:29:17.558Z,55.26
2023-02-03T08:30:28.838Z,54.98
2023-02-03T08:31:42.257Z,55.78
2023-02-03T08:33:46.052Z,57.49
2023-02-03T08:34:18.913Z,58.04
2023-02-03T08:36:45.769Z,58.88
2023-02-03T08:37:57.957Z,59.04
2023-02-03T08:38:31.036Z,59.91
2023-02-03T08:40:19.785Z,61.01
2023-02-03T08:42:46.056Z,61.85
2023-02-03T08:43:56.882Z,62.86
2023-02-03T08:44:31.525Z,63.17
2023-02-03T08:45:05.249Z,63.58
2023-02-03T08:45:40.692Z,62.77
2023-02-03T08:48:46.058Z,57.60
2023-02-03T08:49:19.534Z,56.02
2023-02-03T08:51:36.341Z,53.68
2023-02-03T08:52:49.076Z,53.97
2023-02-03T08:54:38.211Z,54.81
2023-02-03T08:55:50.220Z,56.75
2023-02-03T08:56:24.497Z,57.57
2023-02-03T08:56:57.369Z,58.46
2023-02-03T08:57:34.724Z,58.77
2023-02-03T08:58:07.732Z,58.56
2023-02-03T08:58:40.795Z,58.93
2023-02-03T08:59:14.328Z,59.08
2023-02-03T08:59:47.346Z,59.54
2023-02-03T09:01:07.424Z,60.12
2023-02-03T09:01:46.134Z,59.94
2023-02-03T09:02:19.629Z,59.66
2023-02-03T09:02:52.702Z,60.05
2023-02-03T09:03:25.770Z,60.88
2023-02-03T09:03:58.733Z,61.11
2023-02-03T09:05:49.163Z,61.01
2023-02-03T09:08:16.379Z,61.17
2023-02-03T09:09:27.144Z,61.81
2023-02-03T09:10:37.906Z,61.87
2023-02-03T09:11:11.385Z,62.80
2023-02-03T09:12:59.752Z,63.14
2023-02-03T09:14:11.409Z,62.15
2023-02-03T09:14:44.486Z,60.64
2023-02-03T09:15:17.556Z,59.60
2023-02-03T09:15:50.502Z,57.67
2023-02-03T09:18:19.228Z,54.50
2023-02-03T09:18:52.291Z,54.63
2023-02-03T09:19:25.368Z,55.04
2023-02-03T09:20:36.234Z,55.68
2023-02-03T09:22:27.433Z,56.17
2023-02-03T09:23:38.706Z,57.41
2023-02-03T09:26:08.465Z,58.15
2023-02-03T09:27:19.279Z,58.21
2023-02-03T09:27:52.284Z,58.25
2023-02-03T09:28:25.324Z,58.75
2023-02-03T09:28:58.356Z,59.43
2023-02-03T09:30:09.525Z,59.73
2023-02-03T09:30:42.598Z,59.82
2023-02-03T09:31:55.830Z,59.59
2023-02-03T09:32:28.933Z,59.79
2023-02-03T09:33:39.981Z,59.56
2023-02-03T09:34:13.108Z,59.94
2023-02-03T09:34:46.064Z,59.84
2023-02-03T09:35:19.741Z,60.32
2023-02-03T09:35:53.940Z,61.16
2023-02-03T09:36:26.874Z,61.10
2023-02-03T09:36:59.884Z,60.74
2023-02-03T09:38:48.455Z,61.28
2023-02-03T09:39:59.699Z,61.02
2023-02-03T09:40:34.540Z,61.18
2023-02-03T09:42:36.170Z,62.56
2023-02-03T09:45:26.459Z,62.54
2023-02-03T09:46:08.529Z,61.93
2023-02-03T09:46:49.370Z,57.76
2023-02-03T09:47:24.892Z,56.41
2023-02-03T09:48:03.318Z,54.21
2023-02-03T09:48:38.994Z,52.90
2023-02-03T09:49:58.359Z,54.05
2023-02-03T09:51:17.820Z,52.73
2023-02-03T09:52:03.055Z,53.38
2023-02-03T09:52:39.512Z,54.68
2023-02-03T09:55:06.676Z,55.22
2023-02-03T09:57:22.041Z,57.04
2023-02-03T09:58:07.003Z,57.46
2023-02-03T09:58:39.857Z,58.16
2023-02-03T09:59:12.749Z,59.12
2023-02-03T09:59:45.607Z,59.48
2023-02-03T10:00:22.678Z,58.78
2023-02-03T10:02:27.867Z,58.31
2023-02-03T10:03:06.522Z,58.62
2023-02-03T10:03:54.636Z,58.68
2023-02-03T10:07:30.503Z,61.59
2023-02-03T10:09:22.426Z,59.58
2023-02-03T10:10:10.547Z,60.39
2023-02-03T10:10:46.694Z,60.41
2023-02-03T10:11:22.536Z,60.64
2023-02-03T10:12:13.633Z,60.87
2023-02-03T10:13:01.360Z,60.49
2023-02-03T10:14:14.261Z,62.28
2023-02-03T10:15:00.952Z,62.33
2023-02-03T10:15:57.724Z,62.96
2023-02-03T10:17:09.258Z,65.01
2023-02-03T10:17:44.492Z,61.84
2023-02-03T10:18:58.839Z,56.31
2023-02-03T10:20:58.443Z,53.39
2023-02-03T10:21:38.883Z,53.68
2023-02-03T10:22:15.696Z,54.66
2023-02-03T10:24:26.629Z,55.04
2023-02-03T10:25:03.809Z,55.25
2023-02-03T10:25:57.151Z,56.13
2023-02-03T10:27:17.116Z,57.55
2023-02-03T10:27:50.242Z,57.52
2023-02-03T10:28:24.507Z,57.99
2023-02-03T10:28:59.067Z,57.43
2023-02-03T10:29:38.837Z,58.09
2023-02-03T10:30:19.909Z,58.50
2023-02-03T10:31:00.163Z,58.48
2023-02-03T10:31:34.978Z,58.99
2023-02-03T10:32:14.429Z,59.89
2023-02-03T10:32:50.328Z,59.42
2023-02-03T10:33:26.162Z,59.94
2023-02-03T10:34:12.349Z,59.33
2023-02-03T10:34:45.768Z,58.65
2023-02-03T10:36:25.774Z,59.77
2023-02-03T10:37:45.664Z,59.53
2023-02-03T10:38:41.972Z,60.35
2023-02-03T10:39:36.851Z,59.65
2023-02-03T10:40:12.897Z,59.80
2023-02-03T10:40:46.040Z,61.10
2023-02-03T10:41:19.872Z,60.46
2023-02-03T10:41:53.658Z,60.52
2023-02-03T10:42:46.705Z,60.88
2023-02-03T10:43:38.443Z,61.66
2023-02-03T10:44:12.877Z,61.49
2023-02-03T10:45:06.788Z,61.18
2023-02-03T10:47:25.342Z,63.39
2023-02-03T10:47:58.430Z,64.50
2023-02-03T10:49:12.082Z,63.08
2023-02-03T10:49:45.144Z,61.18
2023-02-03T10:50:21.231Z,59.24
2023-02-03T10:50:54.338Z,57.03
2023-02-03T10:53:34.882Z,53.65
2023-02-03T10:54:35.645Z,52.92
2023-02-03T10:56:15.913Z,53.21
2023-02-03T10:58:07.876Z,55.36
2023-02-03T10:58:47.565Z,56.03
2023-02-03T10:59:31.350Z,56.18
2023-02-03T11:00:31.382Z,56.25
2023-02-03T11:01:10.000Z,56.13
2023-02-03T11:01:45.200Z,56.88
2023-02-03T11:02:25.960Z,57.46
2023-02-03T11:03:17.019Z,57.25
2023-02-03T11:03:58.460Z,57.99
2023-02-03T11:05:12.310Z,58.08
2023-02-03T11:05:45.193Z,58.04
2023-02-03T11:07:35.396Z,58.31
2023-02-03T11:08:55.214Z,58.35
2023-02-03T11:10:31.275Z,58.91
2023-02-03T11:11:06.808Z,58.79
2023-02-03T11:15:24.813Z,59.38
2023-02-03T11:16:00.825Z,59.57
2023-02-03T11:16:34.599Z,60.17
2023-02-03T11:17:08.316Z,60.60
2023-02-03T11:18:47.703Z,59.85
2023-02-03T11:21:38.977Z,60.51
2023-02-03T11:23:27.722Z,60.73
2023-02-03T11:24:45.445Z,61.17
2023-02-03T11:25:27.723Z,61.40
2023-02-03T11:26:09.311Z,61.21
2023-02-03T11:27:00.324Z,61.39
2023-02-03T11:28:46.086Z,61.90
2023-02-03T11:29:24.036Z,61.73
2023-02-03T11:30:16.732Z,61.92
2023-02-03T11:30:55.945Z,62.01
2023-02-03T11:31:30.857Z,62.20
2023-02-03T11:32:07.100Z,62.08
2023-02-03T11:34:05.065Z,62.43
2023-02-03T11:35:22.253Z,63.25
2023-02-03T11:35:59.074Z,63.13
2023-02-03T11:36:34.013Z,62.63
2023-02-03T11:37:34.576Z,61.12
2023-02-03T11:38:10.005Z,61.13
2023-02-03T11:38:44.942Z,59.07
2023-02-03T11:41:29.638Z,54.71
2023-02-03T11:42:45.603Z,54.33
2023-02-03T11:46:01.195Z,56.47
2023-02-03T11:46:37.778Z,56.88
2023-02-03T11:47:53.858Z,58.02
2023-02-03T11:48:28.734Z,58.50
2023-02-03T11:49:57.084Z,58.77
2023-02-03T11:50:30.986Z,59.15
2023-02-03T11:51:21.764Z,58.96
2023-02-03T11:52:13.784Z,59.06
2023-02-03T11:52:58.557Z,59.48
2023-02-03T11:53:51.324Z,59.54
2023-02-03T11:54:35.508Z,59.55
2023-02-03T11:55:16.790Z,60.29
2023-02-03T11:56:01.963Z,60.62
2023-02-03T11:56:40.139Z,60.25
2023-02-03T11:57:44.956Z,60.84
2023-02-03T11:58:41.884Z,60.95
2023-02-03T11:59:41.179Z,60.21
2023-02-03T12:00:38.519Z,60.59
2023-02-03T12:01:45.939Z,61.23
2023-02-03T12:03:40.233Z,61.40
2023-02-03T12:05:56.063Z,65.30
2023-02-03T12:07:40.417Z,65.63
2023-02-03T12:08:49.629Z,61.19
2023-02-03T12:09:34.992Z,62.45
2023-02-03T12:10:08.175Z,55.03
2023-02-03T12:11:17.803Z,52.97
2023-02-03T12:12:02.758Z,50.98
2023-02-03T12:12:44.855Z,51.65
2023-02-03T12:13:36.873Z,51.53
2023-02-03T12:14:18.238Z,51.77
2023-02-03T12:15:23.161Z,52.58
2023-02-03T12:16:11.307Z,52.99
2023-02-03T12:17:23.746Z,53.34
2023-02-03T12:18:28.193Z,53.37
2023-02-03T12:19:17.964Z,54.23
2023-02-03T12:20:00.554Z,54.86
2023-02-03T12:21:01.179Z,55.33
2023-02-03T12:21:41.460Z,55.99
2023-02-03T12:22:33.922Z,56.65
2023-02-03T12:23:42.560Z,56.78
2023-02-03T12:24:26.688Z,57.05
2023-02-03T12:25:10.296Z,57.60
2023-02-03T12:25:56.407Z,58.14
2023-02-03T12:26:38.389Z,58.37
2023-02-03T12:27:37.489Z,58.86
2023-02-03T12:28:35.643Z,58.96
2023-02-03T12:30:04.793Z,58.84
2023-02-03T12:30:50.227Z,59.26
2023-02-03T12:33:12.445Z,59.56
2023-02-03T12:33:54.768Z,59.82
2023-02-03T12:34:33.523Z,59.97
2023-02-03T12:35:40.048Z,60.31
2023-02-03T12:36:23.395Z,60.11
2023-02-03T12:36:59.455Z,60.75
2023-02-03T12:38:01.726Z,60.87
2023-02-03T12:39:00.322Z,60.55
2023-02-03T12:39:33.354Z,60.44
2023-02-03T12:41:15.032Z,61.29
2023-02-03T12:42:04.297Z,61.13
2023-02-03T12:43:24.805Z,61.25
2023-02-03T12:44:02.566Z,61.38
2023-02-03T12:44:51.923Z,61.24
2023-02-03T12:45:29.988Z,61.39
2023-02-03T12:46:25.141Z,61.83
2023-02-03T12:47:03.851Z,61.79
2023-02-03T12:47:57.396Z,62.09
2023-02-03T12:48:56.968Z,62.19
2023-02-03T12:49:39.004Z,63.13
2023-02-03T12:50:36.715Z,64.22
2023-02-03T12:51:12.569Z,64.20
2023-02-03T12:51:47.118Z,61.88
2023-02-03T12:52:26.912Z,59.26
2023-02-03T12:53:52.387Z,54.37
2023-02-03T12:54:52.912Z,54.96
2023-02-03T12:55:36.008Z,53.08
2023-02-03T12:56:13.575Z,53.23
2023-02-03T12:56:46.514Z,53.85
2023-02-03T12:57:38.523Z,54.38
2023-02-03T12:58:15.748Z,54.20
2023-02-03T13:00:44.911Z,56.13
2023-02-03T13:01:40.560Z,55.99
2023-02-03T13:02:20.272Z,56.60
2023-02-03T13:03:06.572Z,57.39
2023-02-03T13:03:42.460Z,57.25
2023-02-03T13:04:26.662Z,57.94
2023-02-03T13:05:59.963Z,58.14
2023-02-03T13:06:43.666Z,58.32
2023-02-03T13:07:19.469Z,58.53
2023-02-03T13:07:57.428Z,58.91
2023-02-03T13:08:37.993Z,58.99
2023-02-03T13:09:29.101Z,59.60
2023-02-03T13:10:20.850Z,58.95
2023-02-03T13:11:02.885Z,59.40
2023-02-03T13:12:41.777Z,60.13
2023-02-03T13:13:16.299Z,59.68
2023-02-03T13:13:52.547Z,60.35
2023-02-03T13:15:44.600Z,60.97
2023-02-03T13:16:18.276Z,61.24
2023-02-03T13:16:56.506Z,61.86
2023-02-03T13:17:49.065Z,62.27
2023-02-03T13:20:10.483Z,64.90
2023-02-03T13:21:55.469Z,60.76
2023-02-03T13:23:08.363Z,57.54
2023-02-03T13:23:51.752Z,56.05
2023-02-03T13:24:25.453Z,54.13